Time;durP1;ratioP1;P1;durP2;ratioP2;P2;SDS_P1;SDS_P2;PMS_P1;PMS_P2;Temp;Humidity;BMP_temperature;BMP_pressure;BME280_temperature;BME280_humidity;BME280_pressure;Samples;Min_cycle;Max_cycle;Signal;HPM_P1;HPM_P2
2023/09/23 00:01:18;;;;;;;;;11.60;11.20;;;;;24.58;32.69;98797.50;5049026;28;8849;-68
2023/09/23 00:03:46;;;;;;;;;14.00;11.20;;;;;24.61;32.96;98795.38;5050086;28;8865;-67
2023/09/23 00:06:15;;;;;;;;;11.40;10.40;;;;;24.66;33.03;98789.56;5049247;28;8929;-69
2023/09/23 00:08:45;;;;;;;;;12.20;9.40;;;;;24.66;32.41;98794.94;5041791;28;8844;-67
2023/09/23 00:11:16;;;;;;;;;11.20;8.80;;;;;24.61;32.29;98800.75;5030412;28;8875;-69
2023/09/23 00:13:45;;;;;;;;;9.80;9.80;;;;;24.55;32.67;98798.66;5030248;28;8863;-68
2023/09/23 00:16:15;;;;;;;;;10.20;9.60;;;;;24.63;32.66;98795.25;5044973;28;8848;-70
2023/09/23 00:18:45;;;;;;;;;11.00;9.00;;;;;24.59;32.59;98802.75;5048758;28;8841;-69
2023/09/23 00:21:15;;;;;;;;;15.20;12.20;;;;;24.57;32.34;98803.88;5050326;28;8857;-68
2023/09/23 00:23:45;;;;;;;;;10.20;9.20;;;;;24.63;32.66;98801.47;5048948;28;8926;-69
2023/09/23 00:26:17;;;;;;;;;10.40;9.60;;;;;24.63;32.60;98800.63;5048923;28;8837;-67
2023/09/23 00:28:53;;;;;;;;;12.80;10.20;;;;;24.70;31.93;98799.91;5032133;28;9540;-67
2023/09/23 00:31:24;;;;;;;;;8.80;8.20;;;;;24.64;32.25;98796.94;5027997;28;8859;-69
2023/09/23 00:33:52;;;;;;;;;10.00;9.80;;;;;24.73;32.33;98796.97;5029988;28;8852;-68
2023/09/23 00:36:22;;;;;;;;;9.40;9.40;;;;;24.78;32.34;98801.94;5045149;28;8840;-68
2023/09/23 00:38:51;;;;;;;;;11.80;10.00;;;;;24.83;32.78;98799.66;5029465;28;8860;-68
2023/09/23 00:41:20;;;;;;;;;10.40;10.00;;;;;24.84;32.65;98808.56;5055190;28;8845;-68
2023/09/23 00:43:50;;;;;;;;;11.80;10.60;;;;;24.83;32.40;98813.13;5048417;28;8869;-68
2023/09/23 00:46:23;;;;;;;;;11.20;11.20;;;;;24.79;32.61;98816.22;5067155;28;8870;-69
2023/09/23 00:48:53;;;;;;;;;10.00;9.80;;;;;24.82;32.71;98818.63;5084992;28;8842;-67
2023/09/23 00:51:23;;;;;;;;;10.80;8.80;;;;;24.74;32.47;98819.34;5084869;28;8846;-69
2023/09/23 00:53:51;;;;;;;;;12.00;8.60;;;;;24.72;32.59;98827.50;5018257;28;8967;-70
2023/09/23 00:56:22;;;;;;;;;12.80;8.00;;;;;24.75;32.30;98815.63;5068215;28;8939;-67
2023/09/23 00:58:51;;;;;;;;;12.40;11.40;;;;;24.77;32.72;98813.66;5065357;28;8927;-69
2023/09/23 01:01:22;;;;;;;;;11.60;9.40;;;;;24.81;32.28;98811.53;5026438;28;8867;-68
2023/09/23 01:03:51;;;;;;;;;11.80;9.60;;;;;24.76;32.62;98808.44;5026671;28;9013;-69
2023/09/23 01:06:21;;;;;;;;;14.80;11.60;;;;;24.71;32.29;98811.50;5026782;28;8841;-67
2023/09/23 01:08:51;;;;;;;;;9.80;9.60;;;;;24.68;32.71;98814.47;5026799;28;10199;-68
2023/09/23 01:11:20;;;;;;;;;9.40;8.40;;;;;24.66;32.30;98816.44;4978793;28;8872;-68
2023/09/23 01:13:51;;;;;;;;;13.60;10.20;;;;;24.64;32.93;98813.06;5035972;28;8909;-68
2023/09/23 01:16:22;;;;;;;;;11.00;9.20;;;;;24.61;32.66;98819.56;5016074;28;8880;-69
2023/09/23 01:18:53;;;;;;;;;7.60;6.60;;;;;24.69;32.64;98808.13;5049543;28;8955;-67
2023/09/23 01:21:23;;;;;;;;;12.00;10.00;;;;;24.54;32.84;98819.25;5066284;28;8830;-69
2023/09/23 01:23:53;;;;;;;;;9.00;8.20;;;;;24.52;33.38;98812.34;5060195;28;8869;-76
2023/09/23 01:26:23;;;;;;;;;10.20;9.80;;;;;24.43;33.29;98815.88;5046522;28;8881;-74
2023/09/23 01:28:52;;;;;;;;;13.40;10.40;;;;;24.35;33.49;98803.97;5046548;28;8859;-74
2023/09/23 01:31:22;;;;;;;;;12.60;11.40;;;;;24.35;33.31;98803.97;5036039;28;8895;-75
2023/09/23 01:33:51;;;;;;;;;13.80;10.80;;;;;24.30;33.96;98806.25;5033146;28;8970;-75
2023/09/23 01:36:20;;;;;;;;;10.80;9.20;;;;;24.29;33.56;98812.59;5066133;28;8860;-74
2023/09/23 01:38:49;;;;;;;;;12.00;10.60;;;;;24.29;33.35;98817.13;5033330;28;8953;-75
2023/09/23 01:41:19;;;;;;;;;11.60;11.20;;;;;24.22;33.52;98814.13;5050393;28;8864;-76
2023/09/23 01:43:49;;;;;;;;;11.00;10.40;;;;;24.11;33.67;98817.75;5067732;28;8939;-73
2023/09/23 01:46:20;;;;;;;;;10.40;8.40;;;;;24.07;34.21;98816.31;5064135;28;8934;-74
2023/09/23 01:48:49;;;;;;;;;13.00;10.20;;;;;23.98;34.07;98819.84;5045173;28;8899;-74
2023/09/23 01:51:18;;;;;;;;;10.40;8.20;;;;;23.96;34.36;98819.09;5044605;28;8994;-75
2023/09/23 01:53:47;;;;;;;;;10.40;9.40;;;;;24.02;34.38;98815.03;5027048;28;8902;-74
2023/09/23 01:56:15;;;;;;;;;11.20;9.20;;;;;23.96;34.06;98808.34;4994026;28;8883;-75
2023/09/23 01:58:48;;;;;;;;;8.00;7.20;;;;;24.05;34.33;98818.28;5030612;28;8932;-73
2023/09/23 02:01:17;;;;;;;;;17.40;13.20;;;;;24.08;34.01;98807.28;5047922;28;9672;-75
2023/09/23 02:03:47;;;;;;;;;12.40;11.20;;;;;24.00;34.28;98817.00;5062499;28;8848;-74
2023/09/23 02:06:16;;;;;;;;;9.80;9.40;;;;;24.02;34.27;98818.56;5065390;28;8871;-74
2023/09/23 02:08:45;;;;;;;;;10.20;9.80;;;;;24.09;33.99;98817.06;5030576;28;8849;-76
2023/09/23 02:11:16;;;;;;;;;9.20;9.20;;;;;24.16;33.81;98815.53;5013224;28;8958;-76
2023/09/23 02:13:47;;;;;;;;;11.00;9.00;;;;;24.25;33.39;98803.13;5030572;28;8860;-73
2023/09/23 02:16:18;;;;;;;;;12.40;10.60;;;;;24.30;32.87;98805.38;5013582;28;8900;-74
2023/09/23 02:18:50;;;;;;;;;10.20;9.80;;;;;24.35;32.64;98803.13;5005737;28;8861;-74
2023/09/23 02:21:19;;;;;;;;;10.20;9.80;;;;;24.41;32.18;98807.09;5079422;28;8856;-75
2023/09/23 02:23:48;;;;;;;;;13.00;12.00;;;;;24.46;32.84;98808.38;5046650;28;8930;-74
2023/09/23 02:26:17;;;;;;;;;9.40;9.20;;;;;24.29;32.31;98817.13;5043423;28;8934;-77
2023/09/23 02:28:48;;;;;;;;;16.00;11.20;;;;;24.35;31.76;98813.88;5043574;28;8943;-75
2023/09/23 02:31:17;;;;;;;;;9.20;7.00;;;;;24.33;32.24;98827.44;5041100;28;8983;-74
2023/09/23 02:33:46;;;;;;;;;9.40;8.80;;;;;24.19;32.84;98832.34;5047775;28;8991;-77
2023/09/23 02:36:15;;;;;;;;;11.00;8.80;;;;;24.33;32.38;98822.06;5046814;28;8980;-74
2023/09/23 02:38:44;;;;;;;;;12.60;11.20;;;;;24.27;32.48;98822.63;5048468;28;8930;-75
2023/09/23 02:41:13;;;;;;;;;10.20;9.20;;;;;24.45;32.51;98813.88;5046978;28;8885;-72
2023/09/23 02:43:42;;;;;;;;;9.60;8.00;;;;;24.58;32.14;98814.47;5046459;28;8872;-73
2023/09/23 02:46:14;;;;;;;;;10.00;8.60;;;;;24.66;32.50;98816.44;5062770;28;8923;-72
2023/09/23 02:48:43;;;;;;;;;10.80;9.80;;;;;24.70;32.16;98813.34;5046624;28;8837;-74
2023/09/23 02:51:13;;;;;;;;;11.00;9.40;;;;;24.66;31.59;98816.44;5045168;28;8864;-74
2023/09/23 02:53:44;;;;;;;;;10.60;9.80;;;;;24.52;32.77;98823.94;5029515;28;8865;-74
2023/09/23 02:56:15;;;;;;;;;10.80;9.20;;;;;24.65;33.48;98818.28;5045240;28;8841;-74
2023/09/23 02:58:44;;;;;;;;;9.60;9.60;;;;;24.70;33.13;98820.56;5063076;28;8889;-74
2023/09/23 03:01:16;;;;;;;;;11.40;11.20;;;;;24.72;32.80;98822.13;5029214;28;8895;-72
2023/09/23 03:03:47;;;;;;;;;11.80;10.60;;;;;24.76;33.10;98824.56;5047663;28;8849;-75
2023/09/23 03:06:18;;;;;;;;;11.00;9.40;;;;;24.74;32.51;98817.50;5064703;28;8855;-75
2023/09/23 03:08:53;;;;;;;;;13.60;11.40;;;;;24.66;32.86;98825.38;5065032;28;8884;-73
2023/09/23 03:11:26;;;;;;;;;14.40;11.60;;;;;24.64;32.62;98824.69;5009039;28;8844;-74
2023/09/23 03:13:55;;;;;;;;;9.00;8.40;;;;;24.63;32.73;98827.50;5016630;28;8880;-74
2023/09/23 03:16:29;;;;;;;;;9.60;8.40;;;;;24.62;32.57;98826.66;5013011;28;8855;-71
2023/09/23 03:19:10;;;;;;;;;13.00;10.80;;;;;24.51;33.06;98832.16;4987570;28;8853;-76
2023/09/23 03:21:41;;;;;;;;;17.60;16.60;;;;;24.48;32.83;98835.09;4970001;28;8880;-74
2023/09/23 03:24:11;;;;;;;;;14.80;14.80;;;;;24.37;33.71;98836.06;4985675;28;8879;-74
2023/09/23 03:26:40;;;;;;;;;10.60;9.20;;;;;24.38;33.42;98839.59;4967290;28;8867;-74
2023/09/23 03:29:12;;;;;;;;;9.80;8.80;;;;;24.36;33.48;98839.75;4934751;28;8859;-75
2023/09/23 03:31:43;;;;;;;;;16.80;13.00;;;;;24.35;33.32;98846.94;4919786;28;8923;-75
2023/09/23 03:34:14;;;;;;;;;13.00;11.40;;;;;24.35;33.41;98851.47;4983868;28;8845;-73
2023/09/23 03:36:43;;;;;;;;;10.00;9.20;;;;;24.38;33.62;98853.03;4985059;28;9690;-73
2023/09/23 03:39:12;;;;;;;;;11.20;10.80;;;;;24.40;33.47;98851.09;4972027;28;8861;-74
2023/09/23 03:41:44;;;;;;;;;15.80;10.20;;;;;24.39;33.51;98858.28;4967363;28;10160;-75
2023/09/23 03:44:14;;;;;;;;;17.20;16.00;;;;;24.44;33.48;98860.56;5008491;28;8876;-74
2023/09/23 03:46:47;;;;;;;;;18.60;15.00;;;;;24.45;33.69;98855.06;4992128;28;8845;-74
2023/09/23 03:49:17;;;;;;;;;13.60;11.60;;;;;24.46;33.59;98870.16;4973260;28;8882;-72
2023/09/23 03:51:46;;;;;;;;;15.60;13.40;;;;;24.34;33.85;98866.75;5030375;28;9015;-74
2023/09/23 03:54:17;;;;;;;;;11.20;10.00;;;;;24.31;33.88;98876.91;5030881;28;8868;-73
2023/09/23 03:56:47;;;;;;;;;15.80;10.60;;;;;24.36;33.72;98874.69;5049018;28;8853;-75
2023/09/23 03:59:16;;;;;;;;;9.80;9.40;;;;;24.37;33.91;98883.59;5049373;28;9622;-74
2023/09/23 04:01:47;;;;;;;;;12.00;11.20;;;;;24.42;34.63;98900.16;5049479;28;9607;-75
2023/09/23 04:04:17;;;;;;;;;14.80;11.80;;;;;24.37;34.73;98903.22;5031706;28;8872;-73
2023/09/23 04:06:45;;;;;;;;;12.80;12.20;;;;;24.33;35.23;98915.22;5031754;28;8888;-73
2023/09/23 04:09:14;;;;;;;;;14.20;12.60;;;;;24.34;35.13;98911.56;5052091;28;8837;-76
2023/09/23 04:11:43;;;;;;;;;52.25;42.25;;;;;24.37;35.19;98915.81;5052254;28;9011;-76
2023/09/23 04:14:12;;;;;;;;;55.00;45.25;;;;;24.35;36.12;98916.78;5032399;28;8863;-73
2023/09/23 04:16:41;;;;;;;;;12.40;11.40;;;;;24.26;35.31;98919.44;5030756;28;8883;-74
2023/09/23 04:19:11;;;;;;;;;17.60;13.60;;;;;24.29;35.60;98927.25;5029203;28;8828;-73
2023/09/23 04:21:40;;;;;;;;;17.40;15.80;;;;;24.29;36.71;98921.88;5027580;28;8863;-74
2023/09/23 04:24:09;;;;;;;;;14.00;11.60;;;;;24.24;35.11;98918.72;5050671;28;8838;-75
2023/09/23 04:26:38;;;;;;;;;13.40;12.20;;;;;24.22;35.00;98920.69;5070522;28;8858;-72
2023/09/23 04:29:07;;;;;;;;;29.20;26.60;;;;;24.16;34.93;98922.09;5070089;28;8874;-74
2023/09/23 04:31:36;;;;;;;;;30.50;27.75;;;;;24.12;34.78;98926.84;5035018;28;8874;-74
2023/09/23 04:34:05;;;;;;;;;64.50;50.75;;;;;24.09;34.79;98939.69;5067646;28;8979;-73
2023/09/23 04:36:35;;;;;;;;;33.20;29.20;;;;;24.09;34.78;98926.25;5067605;28;8862;-77
2023/09/23 04:39:06;;;;;;;;;14.20;14.00;;;;;24.06;34.49;98926.56;5064766;28;8833;-73
2023/09/23 04:41:37;;;;;;;;;13.00;11.80;;;;;24.04;34.26;98929.38;5048632;28;9609;-73
2023/09/23 04:44:07;;;;;;;;;13.80;11.20;;;;;23.94;34.30;98932.00;5048492;28;8860;-75
2023/09/23 04:46:36;;;;;;;;;11.60;11.00;;;;;23.86;33.92;98936.31;5050143;28;8915;-74
2023/09/23 04:49:05;;;;;;;;;14.80;10.80;;;;;23.80;33.59;98934.16;5049023;28;8880;-75
2023/09/23 04:51:36;;;;;;;;;10.40;10.20;;;;;23.76;33.62;98930.91;5047471;28;8849;-75
2023/09/23 04:54:05;;;;;;;;;13.20;11.00;;;;;23.77;33.54;98929.91;5049427;28;9746;-75
2023/09/23 04:56:34;;;;;;;;;10.20;9.40;;;;;23.79;33.79;98936.00;5048427;28;9665;-76
2023/09/23 04:59:03;;;;;;;;;9.80;8.40;;;;;23.78;33.38;98926.25;5042933;28;8852;-70
2023/09/23 05:01:32;;;;;;;;;12.40;9.20;;;;;23.80;33.65;98923.44;5011537;28;9018;-80
2023/09/23 05:04:03;;;;;;;;;9.40;9.20;;;;;23.80;33.66;98916.22;5056900;28;8872;-77
2023/09/23 05:06:31;;;;;;;;;13.00;12.40;;;;;23.74;33.54;98928.34;5012015;28;8869;-78
2023/09/23 05:09:02;;;;;;;;;12.40;11.20;;;;;23.74;33.72;98922.97;5062619;28;8846;-78
2023/09/23 05:11:31;;;;;;;;;10.00;9.20;;;;;23.69;34.20;98927.88;5068775;28;8851;-75
2023/09/23 05:14:00;;;;;;;;;11.40;10.20;;;;;23.74;33.80;98917.59;5048662;28;8872;-73
2023/09/23 05:16:29;;;;;;;;;10.40;10.40;;;;;23.80;34.11;98916.22;5038652;28;8954;-72
2023/09/23 05:18:58;;;;;;;;;16.00;12.20;;;;;23.87;34.15;98917.41;5048967;28;8833;-73
2023/09/23 05:21:28;;;;;;;;;13.40;10.00;;;;;23.89;34.58;98907.38;5047584;28;8895;-71
2023/09/23 05:23:57;;;;;;;;;10.80;10.20;;;;;23.86;34.93;98904.94;5029849;28;8946;-73
2023/09/23 05:26:27;;;;;;;;;13.60;11.20;;;;;23.82;34.75;98900.00;5045772;28;8889;-73
2023/09/23 05:28:56;;;;;;;;;10.60;10.40;;;;;23.87;34.37;98897.78;5046470;28;8892;-74
2023/09/23 05:31:25;;;;;;;;;12.40;11.00;;;;;23.74;34.42;98900.66;4999734;28;8845;-71
2023/09/23 05:33:54;;;;;;;;;11.00;10.20;;;;;23.68;34.57;98901.19;5029326;28;8864;-73
2023/09/23 05:36:23;;;;;;;;;13.00;12.00;;;;;23.56;34.71;98893.22;5048244;28;8865;-72
2023/09/23 05:38:52;;;;;;;;;9.60;9.60;;;;;23.61;35.05;98900.88;5048584;28;8853;-71
2023/09/23 05:41:24;;;;;;;;;13.80;11.00;;;;;23.64;34.97;98915.84;5048759;28;9777;-66
2023/09/23 05:43:54;;;;;;;;;11.40;10.80;;;;;23.57;35.00;98920.91;5046859;28;8853;-68
2023/09/23 05:46:23;;;;;;;;;12.60;9.80;;;;;23.59;34.99;98926.97;5046870;28;9131;-67
2023/09/23 05:48:52;;;;;;;;;10.60;10.20;;;;;23.55;35.40;98930.91;5048243;28;8864;-68
2023/09/23 05:51:20;;;;;;;;;15.80;12.00;;;;;23.60;35.27;98933.19;5047348;28;8911;-67
2023/09/23 05:53:49;;;;;;;;;11.80;10.00;;;;;23.63;35.25;98938.31;5047980;28;8995;-67
2023/09/23 05:56:18;;;;;;;;;9.80;9.80;;;;;23.63;35.19;98931.09;5048258;28;8873;-66
2023/09/23 05:58:50;;;;;;;;;15.60;14.20;;;;;23.73;34.93;98932.03;5047777;28;8880;-76
2023/09/23 06:01:20;;;;;;;;;12.60;11.80;;;;;23.78;34.85;98931.63;5047076;28;8843;-69
2023/09/23 06:03:50;;;;;;;;;14.60;13.80;;;;;23.82;34.10;98941.09;5076086;28;8848;-67
2023/09/23 06:06:18;;;;;;;;;21.80;21.20;;;;;23.87;34.15;98943.41;5060615;28;8964;-66
2023/09/23 06:08:50;;;;;;;;;13.80;12.60;;;;;23.94;33.91;98933.81;5047913;28;8946;-68
2023/09/23 06:11:19;;;;;;;;;13.00;13.00;;;;;24.00;34.00;98944.03;5047872;28;8979;-67
2023/09/23 06:13:47;;;;;;;;;12.40;11.80;;;;;24.07;33.95;98939.81;5045875;28;8868;-67
2023/09/23 06:16:16;;;;;;;;;13.20;12.20;;;;;24.15;32.99;98944.56;5047308;28;8884;-67
2023/09/23 06:18:47;;;;;;;;;11.60;10.80;;;;;24.22;33.04;98943.03;5027656;28;8940;-67
2023/09/23 06:21:15;;;;;;;;;13.00;10.00;;;;;24.19;32.90;98937.94;5047485;28;8856;-68
2023/09/23 06:23:44;;;;;;;;;13.80;12.60;;;;;24.20;32.78;98933.41;5047835;28;8849;-71
2023/09/23 06:26:14;;;;;;;;;8.40;6.80;;;;;24.26;32.75;98932.88;5047941;28;8879;-69
2023/09/23 06:28:43;;;;;;;;;12.60;11.80;;;;;24.28;32.59;98923.72;4992263;28;8851;-74
2023/09/23 06:31:12;;;;;;;;;11.80;10.80;;;;;24.25;32.38;98920.44;4984930;28;8949;-71
2023/09/23 06:33:41;;;;;;;;;11.40;10.00;;;;;24.23;32.27;98925.94;5003409;28;9085;-70
2023/09/23 06:36:11;;;;;;;;;12.80;10.00;;;;;24.19;32.56;98923.66;5017403;28;8871;-70
2023/09/23 06:38:40;;;;;;;;;10.60;10.60;;;;;24.23;32.61;98922.41;5008673;28;8831;-72
2023/09/23 06:41:08;;;;;;;;;10.60;10.00;;;;;24.24;32.74;98932.16;5008437;28;8875;-73
2023/09/23 06:43:37;;;;;;;;;13.40;10.80;;;;;24.26;32.39;98935.56;5016065;28;9584;-73
2023/09/23 06:46:06;;;;;;;;;10.00;9.40;;;;;24.22;32.55;98936.81;5008333;28;8882;-76
2023/09/23 06:48:36;;;;;;;;;11.60;10.80;;;;;24.14;32.33;98934.81;5022736;28;9042;-74
2023/09/23 06:51:04;;;;;;;;;9.80;9.80;;;;;24.11;32.72;98935.91;5023138;28;8945;-77
2023/09/23 06:53:35;;;;;;;;;14.00;12.60;;;;;23.99;33.13;98936.97;5024729;28;8868;-73
2023/09/23 06:56:04;;;;;;;;;12.20;11.00;;;;;23.96;32.87;98934.53;5013600;28;9583;-76
2023/09/23 06:58:33;;;;;;;;;10.60;8.60;;;;;24.03;32.90;98930.34;5008577;28;8840;-75
2023/09/23 07:01:02;;;;;;;;;11.80;10.00;;;;;24.01;33.30;98929.63;5044514;28;8924;-75
2023/09/23 07:03:31;;;;;;;;;12.40;10.80;;;;;24.01;33.40;98932.31;5030146;28;8853;-75
2023/09/23 07:05:59;;;;;;;;;13.60;10.40;;;;;24.07;33.13;98926.38;5029962;28;8883;-73
2023/09/23 07:08:28;;;;;;;;;9.60;6.40;;;;;24.26;33.09;98930.19;5028012;28;8918;-72
2023/09/23 07:10:59;;;;;;;;;15.00;11.40;;;;;24.43;33.23;98926.00;5048795;28;8833;-71
2023/09/23 07:13:28;;;;;;;;;11.60;9.20;;;;;24.59;32.61;98939.78;5053489;28;8843;-74
2023/09/23 07:15:56;;;;;;;;;12.00;10.20;;;;;24.73;32.67;98930.50;5064499;28;8873;-74
2023/09/23 07:18:25;;;;;;;;;12.20;10.20;;;;;24.93;32.45;98934.94;5050661;28;8846;-75
2023/09/23 07:20:57;;;;;;;;;11.40;10.40;;;;;25.13;32.40;98934.94;5051972;28;9050;-75
2023/09/23 07:23:26;;;;;;;;;12.80;11.60;;;;;25.23;31.94;98932.28;5068662;28;8844;-72
2023/09/23 07:25:54;;;;;;;;;11.00;9.00;;;;;25.40;31.72;98947.72;5054039;28;9698;-72
2023/09/23 07:28:25;;;;;;;;;13.40;11.00;;;;;25.54;31.43;98959.06;4996857;28;8885;-73
2023/09/23 07:30:54;;;;;;;;;8.60;7.60;;;;;25.67;31.88;98962.28;5047449;28;8953;-71
2023/09/23 07:33:23;;;;;;;;;16.40;12.00;;;;;25.89;31.15;98978.13;5062051;28;8878;-73
2023/09/23 07:35:51;;;;;;;;;14.60;10.20;;;;;26.08;31.19;98985.34;5048126;28;8882;-77
2023/09/23 07:38:20;;;;;;;;;19.80;13.60;;;;;26.28;30.86;99009.53;5054401;28;9760;-70
2023/09/23 07:40:50;;;;;;;;;13.40;12.80;;;;;26.01;31.37;99026.47;5018465;28;8848;-73
2023/09/23 07:43:19;;;;;;;;;18.60;14.00;;;;;26.06;31.47;99033.13;5064521;28;9085;-74
2023/09/23 07:45:54;;;;;;;;;12.40;10.40;;;;;26.24;30.44;99045.84;5069766;28;8862;-73
2023/09/23 07:48:23;;;;;;;;;15.80;11.00;;;;;26.21;30.68;99056.91;5067222;28;8931;-72
2023/09/23 07:50:54;;;;;;;;;16.00;15.20;;;;;26.36;30.98;99060.00;5056051;28;8887;-72
2023/09/23 07:53:23;;;;;;;;;15.20;11.80;;;;;26.40;30.36;99073.03;5062930;28;8858;-74
2023/09/23 07:55:52;;;;;;;;;17.60;13.40;;;;;26.43;30.34;99080.81;5061533;28;8891;-78
2023/09/23 07:58:21;;;;;;;;;17.00;14.00;;;;;26.28;30.91;99084.97;5050182;28;8903;-80
2023/09/23 08:00:50;;;;;;;;;9.60;9.00;;;;;26.38;30.91;99091.19;5073806;28;8972;-80
2023/09/23 08:03:20;;;;;;;;;17.40;13.80;;;;;26.11;31.03;99083.84;5046942;28;8853;-80
2023/09/23 08:05:49;;;;;;;;;15.40;12.40;;;;;25.70;32.41;99088.53;5054561;28;8861;-78
2023/09/23 08:08:18;;;;;;;;;16.20;14.40;;;;;25.12;33.08;99106.22;5067237;28;8842;-77
2023/09/23 08:10:49;;;;;;;;;14.60;13.20;;;;;24.86;33.30;99113.91;5069588;28;8858;-83
2023/09/23 08:13:38;;;;;;;;;18.20;14.60;;;;;24.60;34.19;99116.13;5068015;28;8824;-81
2023/09/23 08:16:07;;;;;;;;;14.40;12.20;;;;;24.41;36.03;99124.94;5038019;28;8971;-81
2023/09/23 08:18:37;;;;;;;;;15.00;13.80;;;;;23.82;37.49;99125.44;5003466;28;8847;-84
2023/09/23 08:21:06;;;;;;;;;17.60;15.40;;;;;23.57;38.64;99130.16;5018731;28;8852;-84
2023/09/23 08:23:35;;;;;;;;;16.00;12.20;;;;;22.96;40.05;99125.22;5031137;28;8839;-78
2023/09/23 08:26:05;;;;;;;;;16.40;15.20;;;;;23.12;40.14;99132.88;5036307;28;9685;-83
2023/09/23 08:28:34;;;;;;;;;20.80;19.60;;;;;23.11;40.09;99121.31;5041981;28;8942;-79
2023/09/23 08:31:03;;;;;;;;;14.80;13.60;;;;;22.83;40.19;99117.25;5045922;28;8917;-78
2023/09/23 08:33:33;;;;;;;;;14.80;13.40;;;;;22.65;39.93;99122.22;5064437;28;8860;-82
2023/09/23 08:36:03;;;;;;;;;16.80;15.40;;;;;22.86;39.22;99116.16;5047761;28;8984;-81
2023/09/23 08:38:32;;;;;;;;;19.20;15.20;;;;;23.18;40.18;99121.66;5031067;28;8858;-80
2023/09/23 08:41:05;;;;;;;;;16.20;14.00;;;;;23.22;40.09;99122.25;5062507;28;8973;-81
2023/09/23 08:43:40;;;;;;;;;15.80;14.60;;;;;23.62;39.30;99121.72;5051191;28;8843;-84
2023/09/23 08:46:09;;;;;;;;;20.40;17.80;;;;;23.72;39.55;99102.06;5049104;28;8861;-85
2023/09/23 08:48:39;;;;;;;;;19.00;16.80;;;;;24.13;38.27;99096.88;5043851;28;9685;-82
2023/09/23 08:51:12;;;;;;;;;15.00;13.40;;;;;24.34;38.12;99102.28;5032705;28;8887;-82
2023/09/23 08:53:42;;;;;;;;;17.20;16.40;;;;;24.29;37.89;99102.66;5055905;28;9788;-77
2023/09/23 08:56:12;;;;;;;;;16.80;14.60;;;;;24.58;37.46;99096.59;5068830;28;8983;-77
2023/09/23 08:58:42;;;;;;;;;14.20;13.00;;;;;24.69;37.73;99101.06;5049500;28;8862;-79
2023/09/23 09:01:11;;;;;;;;;19.80;17.60;;;;;24.86;37.74;99105.84;5033636;28;8866;-74
2023/09/23 09:03:40;;;;;;;;;20.40;18.60;;;;;25.10;37.46;99100.13;5051146;28;8964;-75
2023/09/23 09:06:18;;;;;;;;;16.40;14.80;;;;;24.80;37.25;99101.00;5051209;28;8854;-74
2023/09/23 09:08:48;;;;;;;;;18.20;17.40;;;;;24.37;38.55;99096.63;5084814;28;8977;-74
2023/09/23 09:11:24;;;;;;;;;25.40;19.80;;;;;24.89;38.12;99080.53;5086859;28;8849;-72
2023/09/23 09:13:53;;;;;;;;;22.80;18.80;;;;;25.00;37.83;99072.38;5085294;28;8935;-74
2023/09/23 09:16:22;;;;;;;;;19.40;16.20;;;;;25.16;37.27;99082.59;5076689;28;8879;-73
2023/09/23 09:18:51;;;;;;;;;15.60;15.20;;;;;25.07;37.67;99091.47;5078947;28;8861;-74
2023/09/23 09:21:22;;;;;;;;;19.20;14.60;;;;;25.18;37.98;99090.53;5029428;28;8970;-77
2023/09/23 09:23:51;;;;;;;;;17.20;15.60;;;;;25.25;38.32;99107.81;5075337;28;8834;-67
2023/09/23 09:26:20;;;;;;;;;15.60;14.60;;;;;25.16;38.45;99105.97;5086248;28;8838;-68
2023/09/23 09:28:50;;;;;;;;;16.20;15.20;;;;;25.20;38.72;99102.84;5086291;28;8846;-69
2023/09/23 09:31:18;;;;;;;;;19.00;19.00;;;;;25.10;39.11;99115.44;5070551;28;8852;-69
2023/09/23 09:33:49;;;;;;;;;23.80;19.40;;;;;25.28;39.42;99119.16;5065449;28;8844;-69
2023/09/23 09:36:19;;;;;;;;;19.80;18.60;;;;;24.60;40.56;99129.56;5064996;28;8990;-69
2023/09/23 09:38:52;;;;;;;;;20.60;18.20;;;;;24.67;40.95;99113.78;5011980;28;9626;-74
2023/09/23 09:41:25;;;;;;;;;24.00;22.00;;;;;24.79;40.97;99109.19;5066066;28;8871;-72
2023/09/23 09:43:54;;;;;;;;;20.80;17.20;;;;;24.51;41.86;99108.91;5069096;28;8860;-72
2023/09/23 09:46:27;;;;;;;;;24.20;22.00;;;;;24.46;42.24;99111.97;5068299;28;8861;-71
2023/09/23 09:48:59;;;;;;;;;21.20;19.60;;;;;24.45;42.07;99104.91;5048438;28;8948;-69
2023/09/23 09:51:33;;;;;;;;;20.20;18.00;;;;;24.62;42.01;99116.00;5056609;28;8841;-71
2023/09/23 09:54:05;;;;;;;;;22.40;19.20;;;;;24.84;41.23;99115.88;5048255;28;9579;-76
2023/09/23 09:56:35;;;;;;;;;21.00;18.60;;;;;24.93;40.86;99108.84;5031333;28;8869;-78
2023/09/23 09:59:04;;;;;;;;;18.00;16.60;;;;;24.73;40.91;99110.59;5054808;28;8857;-74
2023/09/23 10:01:35;;;;;;;;;17.20;17.00;;;;;24.13;42.39;99105.81;5053872;28;8878;-78
2023/09/23 10:04:10;;;;;;;;;17.00;17.00;;;;;24.00;42.54;99099.75;5074610;28;8858;-79
2023/09/23 10:06:41;;;;;;;;;23.20;22.00;;;;;24.44;41.90;99102.34;5005659;28;8850;-78
2023/09/23 10:09:18;;;;;;;;;15.80;13.80;;;;;24.50;41.40;99097.28;5063571;28;8856;-68
2023/09/23 10:11:55;;;;;;;;;21.80;20.40;;;;;24.73;41.42;99105.22;5047332;28;8876;-68
2023/09/23 10:14:26;;;;;;;;;14.00;12.80;;;;;24.42;41.49;99093.56;5065338;28;8855;-75
2023/09/23 10:17:00;;;;;;;;;14.60;13.60;;;;;24.48;41.00;99098.41;5041613;28;8892;-67
2023/09/23 10:19:31;;;;;;;;;12.60;12.40;;;;;24.83;41.13;99084.63;5066129;28;8863;-70
2023/09/23 10:22:11;;;;;;;;;23.00;22.20;;;;;24.88;40.77;99090.41;5066954;28;8874;-70
2023/09/23 10:24:42;;;;;;;;;11.00;10.40;;;;;25.24;39.74;99084.59;5067749;28;8838;-73
2023/09/23 10:27:11;;;;;;;;;20.40;19.40;;;;;25.36;40.28;99072.78;5053137;28;8841;-69
2023/09/23 10:29:46;;;;;;;;;30.00;28.00;;;;;25.37;39.25;99079.00;5050682;28;8850;-74
2023/09/23 10:32:16;;;;;;;;;14.00;13.60;;;;;25.56;38.21;99072.78;5065723;28;8862;-67
2023/09/23 10:34:48;;;;;;;;;18.20;16.80;;;;;25.86;37.67;99061.88;5058304;28;8862;-68
2023/09/23 10:37:30;;;;;;;;;14.00;12.40;;;;;26.12;37.41;99057.78;5065536;28;8858;-66
2023/09/23 10:40:12;;;;;;;;;17.00;13.40;;;;;26.18;36.67;99049.13;5066392;28;8849;-72
2023/09/23 10:42:42;;;;;;;;;13.00;10.00;;;;;26.43;36.55;99053.88;5063499;28;8876;-67
2023/09/23 10:45:12;;;;;;;;;12.40;9.60;;;;;26.50;36.01;99046.09;5061000;28;8880;-68
2023/09/23 10:47:43;;;;;;;;;6.60;6.60;;;;;26.64;35.89;99050.97;5029274;28;8907;-68
2023/09/23 10:50:12;;;;;;;;;9.80;9.20;;;;;26.84;35.37;99043.66;5056531;28;8862;-67
2023/09/23 10:52:42;;;;;;;;;10.00;10.00;;;;;26.89;35.09;99043.22;5064098;28;8897;-70
2023/09/23 10:55:12;;;;;;;;;10.40;9.80;;;;;27.00;35.20;99034.06;5069925;28;8859;-67
2023/09/23 10:57:42;;;;;;;;;11.00;9.40;;;;;27.19;34.40;99020.53;5070968;28;8870;-78
2023/09/23 11:00:16;;;;;;;;;11.80;10.60;;;;;27.30;34.35;99018.59;5086021;28;8913;-67
2023/09/23 11:02:51;;;;;;;;;14.00;11.00;;;;;27.19;33.59;99011.56;5071696;28;8874;-73
2023/09/23 11:05:23;;;;;;;;;19.60;17.20;;;;;27.45;33.69;99007.09;5071628;28;8985;-72
2023/09/23 11:07:54;;;;;;;;;28.25;27.75;;;;;27.61;33.54;99003.75;5043239;28;8863;-73
2023/09/23 11:10:25;;;;;;;;;10.00;9.60;;;;;27.73;33.57;98993.53;5064629;28;8853;-76
2023/09/23 11:12:55;;;;;;;;;14.80;14.60;;;;;27.88;33.02;98987.56;5066536;28;8947;-80
2023/09/23 11:15:24;;;;;;;;;15.00;12.00;;;;;28.10;32.78;98986.19;5071831;28;8857;-72
2023/09/23 11:17:55;;;;;;;;;12.80;10.40;;;;;28.23;32.46;98978.53;5071180;28;8861;-70
2023/09/23 11:20:29;;;;;;;;;11.80;10.40;;;;;28.29;32.39;98977.91;5070001;28;8846;-67
2023/09/23 11:22:59;;;;;;;;;15.00;11.20;;;;;28.49;32.07;98985.78;5068509;28;8858;-67
2023/09/23 11:25:29;;;;;;;;;10.40;9.40;;;;;28.70;31.33;98980.81;5059892;28;9632;-65
2023/09/23 11:27:59;;;;;;;;;13.20;12.40;;;;;28.88;31.41;98969.91;5070961;28;8931;-65
2023/09/23 11:30:29;;;;;;;;;15.00;12.20;;;;;29.06;31.17;98977.03;5070673;28;8865;-65
2023/09/23 11:32:58;;;;;;;;;15.00;12.00;;;;;29.26;30.92;98972.22;5069797;28;8862;-75
2023/09/23 11:35:27;;;;;;;;;11.20;11.20;;;;;29.46;29.59;98968.16;5070348;28;8961;-63
2023/09/23 11:37:56;;;;;;;;;13.80;12.60;;;;;29.60;29.86;98963.09;5070625;28;9632;-72
2023/09/23 11:40:25;;;;;;;;;11.80;10.00;;;;;29.71;29.37;98951.94;5070128;28;8970;-76
2023/09/23 11:42:55;;;;;;;;;14.00;12.40;;;;;29.75;28.70;98953.28;5056219;28;8950;-75